Time;durP1;ratioP1;P1;durP2;ratioP2;P2;SDS_P1;SDS_P2;PMS_P1;PMS_P2;Temp;Humidity;BMP_temperature;BMP_pressure;BME280_temperature;BME280_humidity;BME280_pressure;Samples;Min_cycle;Max_cycle;Signal;HPM_P1;HPM_P2
2023/01/31 00:00:52;;;;;;;11.10;5.83;;;4.10;83.70;;;;;;5021347;28;20885;-76
2023/01/31 00:03:18;;;;;;;14.13;6.43;;;4.10;83.70;;;;;;5030380;28;20197;-74
2023/01/31 00:05:43;;;;;;;17.33;5.90;;;4.10;83.60;;;;;;5039166;28;20497;-74
2023/01/31 00:08:09;;;;;;;9.53;5.20;;;4.10;83.60;;;;;;5028424;28;20593;-73
2023/01/31 00:10:35;;;;;;;9.47;5.37;;;4.00;83.70;;;;;;5020708;28;20216;-75
2023/01/31 00:13:00;;;;;;;9.73;5.17;;;4.00;83.70;;;;;;5030088;28;20186;-74
2023/01/31 00:15:26;;;;;;;12.23;5.20;;;4.00;83.70;;;;;;5024687;28;20178;-74
2023/01/31 00:17:51;;;;;;;10.57;5.27;;;3.90;83.80;;;;;;5022212;28;20202;-73
2023/01/31 00:20:17;;;;;;;10.67;5.40;;;3.90;84.00;;;;;;5022660;28;20214;-73
2023/01/31 00:22:43;;;;;;;16.23;5.73;;;3.90;83.70;;;;;;5024036;28;20178;-74
2023/01/31 00:25:08;;;;;;;9.53;5.33;;;3.90;83.70;;;;;;5029679;28;20498;-76
2023/01/31 00:27:34;;;;;;;18.60;6.10;;;3.80;83.70;;;;;;5023972;28;20184;-74
2023/01/31 00:30:00;;;;;;;11.40;5.40;;;3.80;83.70;;;;;;5024583;28;20212;-75
2023/01/31 00:32:25;;;;;;;11.00;5.40;;;3.70;83.70;;;;;;5011318;28;20280;-75
2023/01/31 00:34:52;;;;;;;12.10;5.50;;;3.80;83.70;;;;;;5015410;28;20570;-73
2023/01/31 00:37:18;;;;;;;13.53;5.10;;;3.70;83.60;;;;;;5012178;28;20186;-74
2023/01/31 00:39:44;;;;;;;10.00;5.00;;;3.70;83.60;;;;;;5014307;28;20428;-73
2023/01/31 00:42:09;;;;;;;10.03;5.50;;;3.70;83.70;;;;;;5011406;28;20445;-73
2023/01/31 00:44:35;;;;;;;10.10;4.77;;;3.60;83.70;;;;;;5011616;28;20590;-75
2023/01/31 00:47:01;;;;;;;11.13;5.23;;;3.70;83.60;;;;;;5019514;28;20193;-74
2023/01/31 00:49:26;;;;;;;9.83;5.03;;;3.70;83.40;;;;;;5022132;28;20182;-75
2023/01/31 00:51:52;;;;;;;15.00;6.33;;;3.70;83.40;;;;;;5019736;28;20225;-74
2023/01/31 00:54:17;;;;;;;10.00;4.80;;;3.60;83.60;;;;;;5021075;28;20716;-74
2023/01/31 00:56:43;;;;;;;11.67;5.20;;;3.60;83.40;;;;;;5014018;28;20301;-74
2023/01/31 00:59:09;;;;;;;11.97;5.30;;;3.60;83.40;;;;;;5016432;28;20729;-74
2023/01/31 01:01:35;;;;;;;15.50;5.27;;;3.60;83.40;;;;;;5012863;28;20460;-74
2023/01/31 01:04:01;;;;;;;9.70;5.00;;;3.50;83.60;;;;;;5019836;28;20518;-75
2023/01/31 01:06:27;;;;;;;10.53;5.13;;;3.50;83.80;;;;;;5020125;28;20442;-74
2023/01/31 01:08:54;;;;;;;10.97;4.70;;;3.50;83.60;;;;;;5019119;28;20447;-74
2023/01/31 01:11:25;;;;;;;12.93;4.90;;;3.60;83.30;;;;;;5016259;28;20214;-75
2023/01/31 01:13:51;;;;;;;15.20;5.80;;;3.50;83.10;;;;;;5030196;28;20427;-75
2023/01/31 01:16:20;;;;;;;9.20;5.20;;;3.50;83.10;;;;;;5020844;28;20447;-74
2023/01/31 01:18:48;;;;;;;13.87;5.10;;;3.50;83.10;;;;;;5023347;28;20507;-74
2023/01/31 01:21:18;;;;;;;12.03;4.70;;;3.50;83.10;;;;;;5014875;28;20471;-74
2023/01/31 01:23:46;;;;;;;8.17;4.80;;;3.50;83.30;;;;;;5021682;28;20469;-75
2023/01/31 01:26:19;;;;;;;14.00;5.40;;;3.40;83.30;;;;;;5021989;28;20416;-74
2023/01/31 01:28:46;;;;;;;9.20;4.43;;;3.40;83.40;;;;;;5024680;28;20499;-75
2023/01/31 01:31:14;;;;;;;13.77;5.20;;;3.40;83.40;;;;;;5013308;28;20480;-74
2023/01/31 01:33:40;;;;;;;13.50;5.43;;;3.40;83.10;;;;;;5018772;28;20447;-75
2023/01/31 01:36:12;;;;;;;8.30;4.20;;;3.40;83.10;;;;;;5017497;28;20915;-74
2023/01/31 01:38:41;;;;;;;10.73;4.90;;;3.50;83.10;;;;;;5017187;28;20463;-74
2023/01/31 01:41:08;;;;;;;14.17;5.00;;;3.40;82.70;;;;;;5015399;28;20472;-76
2023/01/31 01:43:47;;;;;;;13.93;5.60;;;3.40;82.80;;;;;;5015213;28;20464;-75
2023/01/31 01:46:25;;;;;;;11.03;4.80;;;3.40;82.80;;;;;;5013681;28;21110;-74
2023/01/31 01:49:04;;;;;;;11.67;4.90;;;3.40;82.80;;;;;;5012682;28;20849;-75
2023/01/31 01:51:32;;;;;;;10.37;4.43;;;3.40;82.80;;;;;;5015326;28;20456;-74
2023/01/31 01:54:02;;;;;;;8.57;4.23;;;3.40;83.10;;;;;;5026318;28;20424;-74
2023/01/31 01:56:35;;;;;;;12.30;4.53;;;3.40;83.10;;;;;;5022669;28;20425;-75
2023/01/31 01:59:07;;;;;;;13.13;5.37;;;3.40;83.30;;;;;;5026158;28;21238;-74
2023/01/31 02:01:35;;;;;;;13.90;5.43;;;3.30;83.40;;;;;;5011120;28;20456;-74
2023/01/31 02:04:08;;;;;;;10.27;5.33;;;3.30;83.60;;;;;;5023309;28;20591;-74
2023/01/31 02:06:34;;;;;;;11.33;5.00;;;3.30;83.60;;;;;;5014656;28;20416;-76
2023/01/31 02:09:00;;;;;;;10.10;4.57;;;3.30;83.60;;;;;;5024414;28;20947;-76
2023/01/31 02:11:30;;;;;;;13.23;4.80;;;3.40;83.70;;;;;;5023170;28;20304;-75
2023/01/31 02:14:06;;;;;;;10.67;5.20;;;3.40;83.70;;;;;;5018737;28;20424;-75
2023/01/31 02:16:31;;;;;;;16.70;5.67;;;3.30;83.60;;;;;;5013050;28;20737;-74
2023/01/31 02:18:58;;;;;;;12.33;5.47;;;3.30;83.80;;;;;;5019765;28;20417;-75
2023/01/31 02:22:03;;;;;;;16.83;4.87;;;3.30;83.70;;;;;;5013924;28;20276;-75
2023/01/31 02:24:53;;;;;;;11.23;4.83;;;3.30;84.00;;;;;;5017551;28;20558;-75
2023/01/31 02:27:47;;;;;;;9.33;5.03;;;3.20;84.00;;;;;;5014096;28;21372;-74
2023/01/31 02:30:13;;;;;;;13.43;4.90;;;3.20;84.10;;;;;;5011719;28;20496;-74
2023/01/31 02:32:57;;;;;;;22.30;5.87;;;3.30;84.30;;;;;;5018452;28;20467;-74
2023/01/31 02:35:30;;;;;;;8.53;4.97;;;3.30;84.10;;;;;;5013657;28;20197;-74
2023/01/31 02:38:28;;;;;;;12.00;5.40;;;3.40;83.80;;;;;;5024549;28;20420;-74
2023/01/31 02:41:14;;;;;;;7.33;4.40;;;3.40;83.80;;;;;;5009613;28;20871;-75
2023/01/31 02:47:03;;;;;;;11.93;5.00;;;3.40;83.80;;;;;;5022600;28;20396;-75
2023/01/31 02:49:38;;;;;;;13.80;5.20;;;3.40;83.80;;;;;;5003986;28;20425;-74
2023/01/31 02:52:45;;;;;;;11.87;5.20;;;3.40;84.00;;;;;;5014401;28;20563;-75
2023/01/31 02:58:12;;;;;;;11.30;4.80;;;3.30;84.10;;;;;;4973953;28;20473;-75
2023/01/31 03:00:40;;;;;;;11.00;5.47;;;3.40;84.30;;;;;;4979290;28;20580;-73
2023/01/31 03:03:23;;;;;;;10.30;5.20;;;3.30;84.10;;;;;;4973726;28;20798;-74
2023/01/31 03:06:22;;;;;;;9.13;5.43;;;3.30;84.40;;;;;;4968124;28;20481;-74
2023/01/31 03:09:27;;;;;;;11.27;4.87;;;3.30;84.40;;;;;;4973680;28;20470;-75
2023/01/31 03:12:10;;;;;;;12.37;5.00;;;3.20;84.60;;;;;;4974093;28;20457;-73
2023/01/31 03:15:04;;;;;;;10.63;5.13;;;3.20;84.70;;;;;;4977966;28;20430;-75
2023/01/31 03:17:54;;;;;;;8.70;4.77;;;3.20;85.00;;;;;;4976894;28;20274;-73
2023/01/31 03:20:43;;;;;;;12.80;5.37;;;3.20;85.00;;;;;;4975905;28;20549;-74
2023/01/31 03:23:18;;;;;;;11.70;5.10;;;3.30;85.00;;;;;;4983185;28;20425;-74
2023/01/31 03:25:45;;;;;;;16.60;5.20;;;3.30;84.70;;;;;;4973996;28;20214;-74
2023/01/31 03:28:14;;;;;;;17.93;5.10;;;3.30;84.90;;;;;;4979256;28;20418;-73
2023/01/31 03:30:57;;;;;;;15.10;6.20;;;3.30;84.90;;;;;;4995758;28;20455;-74
2023/01/31 03:33:31;;;;;;;12.97;5.33;;;3.30;84.90;;;;;;5022315;28;20194;-75
2023/01/31 03:36:09;;;;;;;12.57;5.07;;;3.30;84.90;;;;;;5018163;28;20445;-73
2023/01/31 03:38:58;;;;;;;19.20;5.50;;;3.30;84.90;;;;;;5020555;28;20975;-73
2023/01/31 03:41:36;;;;;;;10.40;5.30;;;3.30;84.90;;;;;;5014656;28;20514;-74
2023/01/31 03:44:25;;;;;;;16.10;7.10;;;3.40;84.90;;;;;;5023975;28;20475;-73
2023/01/31 03:46:58;;;;;;;14.67;5.40;;;3.40;84.90;;;;;;5011401;28;20409;-76
2023/01/31 03:49:26;;;;;;;14.83;4.90;;;3.40;84.70;;;;;;5014346;28;20414;-74
2023/01/31 03:51:58;;;;;;;20.90;5.70;;;3.40;84.60;;;;;;5009191;28;20867;-74
2023/01/31 03:54:30;;;;;;;10.97;5.33;;;3.40;84.30;;;;;;5017220;28;20486;-75
2023/01/31 03:57:17;;;;;;;16.10;4.97;;;3.40;84.40;;;;;;5011129;28;20523;-75
2023/01/31 03:59:45;;;;;;;8.10;4.80;;;3.40;84.60;;;;;;5009064;28;20520;-75
2023/01/31 04:02:14;;;;;;;23.30;6.07;;;3.30;84.40;;;;;;5011824;28;20797;-75
2023/01/31 04:04:57;;;;;;;12.67;5.00;;;3.30;84.40;;;;;;5011279;28;20564;-76
2023/01/31 04:07:24;;;;;;;15.20;5.00;;;3.20;84.60;;;;;;5022089;28;20771;-75
2023/01/31 04:09:49;;;;;;;9.77;5.33;;;3.20;84.60;;;;;;5013367;28;20800;-74
2023/01/31 04:12:15;;;;;;;17.90;5.47;;;3.20;84.60;;;;;;5011681;28;20439;-75
2023/01/31 04:14:41;;;;;;;18.13;5.30;;;3.30;84.60;;;;;;5011697;28;20173;-75
2023/01/31 04:17:07;;;;;;;16.93;5.17;;;3.10;84.40;;;;;;5017627;28;20224;-78
2023/01/31 04:19:32;;;;;;;20.70;6.07;;;3.10;84.90;;;;;;5013251;28;20428;-76
2023/01/31 04:21:58;;;;;;;17.73;5.67;;;3.00;85.00;;;;;;5012252;28;20209;-75
2023/01/31 04:24:24;;;;;;;18.07;5.80;;;3.00;85.00;;;;;;5013672;28;20218;-76
2023/01/31 04:26:49;;;;;;;15.40;5.30;;;3.00;85.00;;;;;;5017756;28;20301;-75
2023/01/31 04:29:15;;;;;;;10.80;5.53;;;3.00;84.90;;;;;;5025367;28;20595;-74
2023/01/31 04:31:41;;;;;;;11.10;4.73;;;2.90;84.90;;;;;;5018657;28;20201;-74
2023/01/31 04:34:07;;;;;;;13.07;4.73;;;2.90;84.90;;;;;;5020043;28;20190;-75
2023/01/31 04:36:32;;;;;;;14.70;6.03;;;2.90;84.70;;;;;;5015992;28;20192;-74
2023/01/31 04:38:59;;;;;;;18.83;6.57;;;2.90;84.70;;;;;;5010123;28;20418;-74
2023/01/31 04:41:25;;;;;;;15.30;5.95;;;2.90;84.90;;;;;;5014872;28;20205;-74
2023/01/31 04:43:51;;;;;;;13.33;6.20;;;2.90;84.90;;;;;;5014611;28;20212;-75
2023/01/31 04:46:16;;;;;;;13.63;5.53;;;3.00;84.90;;;;;;5021447;28;20292;-75
2023/01/31 04:48:42;;;;;;;17.97;5.70;;;2.90;84.90;;;;;;5015301;28;20186;-75
2023/01/31 04:51:08;;;;;;;13.27;5.70;;;2.90;85.00;;;;;;5019418;28;20353;-74
2023/01/31 04:53:33;;;;;;;14.63;6.20;;;2.90;84.90;;;;;;5015656;28;20209;-76
2023/01/31 04:55:59;;;;;;;18.60;5.63;;;3.00;84.90;;;;;;5023790;28;20961;-76
2023/01/31 04:58:24;;;;;;;14.27;6.07;;;3.00;85.00;;;;;;5015667;28;20260;-74
2023/01/31 05:00:52;;;;;;;16.97;6.07;;;3.10;85.00;;;;;;5013805;28;20252;-75
2023/01/31 05:03:18;;;;;;;9.67;5.30;;;3.10;84.60;;;;;;5019657;28;21464;-75
2023/01/31 05:05:46;;;;;;;15.13;5.73;;;3.10;84.40;;;;;;5014510;28;20463;-74
2023/01/31 05:08:11;;;;;;;9.63;5.07;;;3.10;84.30;;;;;;5013700;28;20182;-76
2023/01/31 05:10:37;;;;;;;18.50;6.03;;;3.10;84.30;;;;;;5011700;28;21054;-74
2023/01/31 05:13:02;;;;;;;10.63;6.33;;;3.10;84.40;;;;;;5014045;28;20608;-75
2023/01/31 05:15:28;;;;;;;11.77;6.07;;;3.10;84.10;;;;;;5015243;28;20178;-75
2023/01/31 05:18:03;;;;;;;15.40;6.73;;;3.20;84.00;;;;;;5027491;28;20616;-74
2023/01/31 05:20:32;;;;;;;13.67;5.47;;;3.10;84.00;;;;;;5011620;28;20201;-75
2023/01/31 05:22:58;;;;;;;11.97;5.67;;;3.10;84.00;;;;;;5012629;28;20431;-75
2023/01/31 05:25:25;;;;;;;13.80;5.77;;;3.20;83.80;;;;;;5023483;28;20456;-75
2023/01/31 05:27:51;;;;;;;8.50;4.50;;;3.10;83.60;;;;;;5017572;28;20529;-75
2023/01/31 05:30:18;;;;;;;13.00;5.37;;;3.10;83.40;;;;;;5019221;28;20815;-77
2023/01/31 05:32:44;;;;;;;11.23;5.57;;;3.20;83.40;;;;;;5015658;28;20423;-76
2023/01/31 05:35:11;;;;;;;9.50;5.20;;;3.20;83.60;;;;;;5016639;28;20460;-74
2023/01/31 05:37:37;;;;;;;14.07;5.90;;;3.10;83.60;;;;;;5031170;28;20424;-75
2023/01/31 05:40:02;;;;;;;18.17;5.43;;;3.10;83.70;;;;;;5046460;28;20531;-78
2023/01/31 05:42:28;;;;;;;10.20;4.77;;;3.10;83.80;;;;;;5026786;28;20190;-77
2023/01/31 05:44:53;;;;;;;19.17;6.60;;;3.00;83.80;;;;;;5020779;28;20209;-75
2023/01/31 05:47:19;;;;;;;15.70;6.07;;;3.00;84.30;;;;;;5023071;28;20216;-77
2023/01/31 05:49:45;;;;;;;10.67;4.73;;;3.00;84.30;;;;;;5028151;28;20221;-75
2023/01/31 05:52:10;;;;;;;13.80;5.50;;;3.00;84.10;;;;;;5017705;28;20173;-74
2023/01/31 05:54:36;;;;;;;10.23;4.67;;;2.90;84.30;;;;;;5022526;28;20181;-74
2023/01/31 05:57:01;;;;;;;10.70;5.20;;;2.90;84.30;;;;;;5023996;28;20276;-76
2023/01/31 05:59:30;;;;;;;12.50;5.63;;;2.90;84.30;;;;;;5022449;28;20185;-76
2023/01/31 06:01:55;;;;;;;16.60;6.93;;;2.90;84.30;;;;;;5012819;28;20723;-77
2023/01/31 06:04:21;;;;;;;22.90;6.13;;;2.80;84.40;;;;;;5014072;28;20516;-77
2023/01/31 06:06:46;;;;;;;10.50;5.83;;;2.80;84.70;;;;;;5018920;28;20197;-76
2023/01/31 06:09:12;;;;;;;14.83;5.70;;;2.70;84.90;;;;;;5018620;28;20177;-75
2023/01/31 06:11:37;;;;;;;11.60;5.83;;;2.60;85.20;;;;;;5012289;28;20205;-75
2023/01/31 06:14:03;;;;;;;10.57;5.03;;;2.70;85.50;;;;;;5014674;28;20189;-76
2023/01/31 06:16:29;;;;;;;14.13;5.53;;;2.60;85.50;;;;;;5021702;28;20254;-77
2023/01/31 06:18:55;;;;;;;11.97;5.33;;;2.60;85.30;;;;;;5019573;28;20186;-76
2023/01/31 06:21:22;;;;;;;11.07;5.30;;;2.70;85.30;;;;;;5017914;28;20263;-74
2023/01/31 06:23:47;;;;;;;24.33;5.57;;;2.70;85.20;;;;;;5020333;28;20552;-76
2023/01/31 06:26:13;;;;;;;9.30;5.07;;;2.60;85.20;;;;;;5021413;28;20300;-76
2023/01/31 06:28:39;;;;;;;22.00;7.10;;;2.60;85.50;;;;;;5021689;28;20174;-76
2023/01/31 06:31:09;;;;;;;17.50;6.80;;;2.60;85.60;;;;;;5015071;28;20989;-75
2023/01/31 06:33:34;;;;;;;15.27;6.67;;;2.50;85.70;;;;;;5015069;28;20182;-75
2023/01/31 06:36:00;;;;;;;13.37;6.07;;;2.40;86.00;;;;;;5018238;28;20471;-77
2023/01/31 06:38:27;;;;;;;17.80;6.33;;;2.20;86.80;;;;;;5015710;28;20174;-75
2023/01/31 06:40:52;;;;;;;14.87;6.70;;;2.20;87.00;;;;;;5019536;28;20555;-75
2023/01/31 06:43:18;;;;;;;11.20;5.73;;;2.10;87.40;;;;;;5018467;28;20495;-73
2023/01/31 06:45:43;;;;;;;15.87;6.27;;;2.10;87.70;;;;;;5020165;28;20190;-74
2023/01/31 06:48:10;;;;;;;11.33;6.23;;;2.10;87.70;;;;;;5015310;28;20184;-75
2023/01/31 06:50:35;;;;;;;15.57;6.30;;;2.00;88.00;;;;;;5019171;28;20267;-76
2023/01/31 06:53:01;;;;;;;17.07;6.70;;;2.00;88.10;;;;;;5019203;28;20191;-74
2023/01/31 06:55:26;;;;;;;13.97;6.37;;;1.90;88.30;;;;;;5015111;28;20178;-76
2023/01/31 06:57:54;;;;;;;12.80;6.53;;;1.90;88.40;;;;;;5018327;28;20584;-74
2023/01/31 07:00:20;;;;;;;17.92;7.35;;;1.90;88.60;;;;;;5018268;28;20205;-75
2023/01/31 07:02:46;;;;;;;13.25;6.30;;;1.80;88.70;;;;;;5019664;28;20537;-75
2023/01/31 07:05:12;;;;;;;10.73;6.50;;;1.80;88.70;;;;;;5025109;28;20575;-76
2023/01/31 07:07:38;;;;;;;18.25;7.22;;;1.80;88.90;;;;;;5021138;28;20879;-74
2023/01/31 07:10:04;;;;;;;15.87;6.60;;;1.80;89.00;;;;;;5012750;28;20210;-76
2023/01/31 07:12:30;;;;;;;13.97;6.53;;;1.70;89.00;;;;;;5012306;28;21099;-76
2023/01/31 07:14:56;;;;;;;14.60;7.00;;;1.70;89.00;;;;;;5015448;28;20421;-76
2023/01/31 07:17:21;;;;;;;14.30;6.90;;;1.70;89.20;;;;;;5019285;28;20243;-75
2023/01/31 07:19:47;;;;;;;14.13;7.00;;;1.70;89.20;;;;;;5026887;28;20181;-73
2023/01/31 07:22:12;;;;;;;16.23;7.40;;;1.70;89.30;;;;;;5035658;28;20216;-75
2023/01/31 07:24:38;;;;;;;22.43;7.70;;;1.80;89.20;;;;;;5016175;28;20198;-76
2023/01/31 07:27:03;;;;;;;16.27;6.83;;;1.80;89.00;;;;;;5021050;28;20272;-74
2023/01/31 07:29:29;;;;;;;17.53;6.60;;;1.90;88.90;;;;;;5023890;28;20185;-74
2023/01/31 07:31:55;;;;;;;18.10;6.30;;;2.00;88.70;;;;;;5022202;28;20322;-75
2023/01/31 07:34:21;;;;;;;16.00;7.00;;;2.00;88.60;;;;;;5020970;28;20276;-75
2023/01/31 07:36:51;;;;;;;13.20;6.57;;;2.00;88.40;;;;;;5035506;28;20189;-74
2023/01/31 07:39:16;;;;;;;22.27;7.93;;;2.00;88.40;;;;;;5024018;28;20189;-75
2023/01/31 07:41:42;;;;;;;19.50;7.50;;;2.00;88.30;;;;;;5028778;28;20276;-75
2023/01/31 07:44:11;;;;;;;16.27;6.97;;;2.00;88.40;;;;;;5026468;28;20460;-76
2023/01/31 07:46:38;;;;;;;14.10;6.13;;;2.10;88.10;;;;;;5023900;28;20170;-76
2023/01/31 07:49:04;;;;;;;14.20;6.10;;;2.20;87.80;;;;;;5015133;28;20189;-75
2023/01/31 07:51:29;;;;;;;11.83;5.87;;;2.20;87.60;;;;;;5017411;28;20205;-76
2023/01/31 07:53:55;;;;;;;13.73;5.93;;;2.30;87.00;;;;;;5018055;28;20190;-76
2023/01/31 07:56:21;;;;;;;10.27;6.43;;;2.30;86.90;;;;;;5012162;28;20212;-75
2023/01/31 07:58:49;;;;;;;13.00;5.65;;;2.30;86.80;;;;;;5022043;28;20439;-74
2023/01/31 08:04:06;;;;;;;13.98;5.80;;;2.50;86.60;;;;;;5016990;28;20807;-75
2023/01/31 08:06:32;;;;;;;16.90;5.80;;;2.50;86.20;;;;;;5031343;28;20170;-76
2023/01/31 08:08:58;;;;;;;15.30;5.37;;;2.60;86.20;;;;;;5021165;28;20991;-76
2023/01/31 08:11:23;;;;;;;17.07;6.60;;;2.70;86.00;;;;;;5016975;28;20451;-76
2023/01/31 08:13:49;;;;;;;18.17;5.70;;;2.70;85.50;;;;;;5022398;28;20417;-75
2023/01/31 08:16:15;;;;;;;14.33;6.33;;;2.70;85.30;;;;;;5017273;28;20424;-76
2023/01/31 08:18:41;;;;;;;13.03;5.77;;;2.80;85.20;;;;;;5022086;28;20734;-75
2023/01/31 08:21:07;;;;;;;10.40;5.33;;;2.80;85.00;;;;;;5020192;28;20464;-76
2023/01/31 08:23:34;;;;;;;17.07;5.17;;;2.90;84.90;;;;;;5018112;28;20213;-77
2023/01/31 08:26:11;;;;;;;15.40;6.17;;;2.90;84.30;;;;;;5023790;28;20408;-77
2023/01/31 08:28:38;;;;;;;10.70;6.20;;;3.00;84.10;;;;;;5019174;28;20938;-76
2023/01/31 08:31:05;;;;;;;15.37;6.33;;;3.00;84.10;;;;;;5016464;28;21242;-76
2023/01/31 08:33:30;;;;;;;17.77;5.73;;;3.10;84.10;;;;;;5015520;28;20427;-76
2023/01/31 08:35:56;;;;;;;19.20;5.70;;;3.10;83.70;;;;;;5023049;28;20417;-76
2023/01/31 08:38:22;;;;;;;15.80;5.70;;;3.20;83.30;;;;;;5020024;28;20185;-75
2023/01/31 08:40:49;;;;;;;11.20;6.17;;;3.30;82.80;;;;;;5020224;28;20205;-76
2023/01/31 08:43:15;;;;;;;15.63;4.60;;;3.40;82.20;;;;;;5013291;28;20421;-77
2023/01/31 08:45:40;;;;;;;11.30;5.63;;;3.40;81.90;;;;;;5011646;28;20432;-75
2023/01/31 08:48:06;;;;;;;15.67;5.70;;;3.50;81.90;;;;;;5013960;28;20901;-75
2023/01/31 08:50:32;;;;;;;13.90;5.47;;;3.60;81.80;;;;;;5015376;28;20463;-75
2023/01/31 08:53:00;;;;;;;14.87;5.30;;;3.60;81.20;;;;;;5014524;28;20201;-75
2023/01/31 08:55:27;;;;;;;19.33;5.67;;;3.70;81.20;;;;;;5018412;28;20640;-76
2023/01/31 08:57:53;;;;;;;11.93;5.53;;;3.80;81.10;;;;;;5022483;28;20440;-75
2023/01/31 09:00:19;;;;;;;9.30;4.50;;;3.80;80.80;;;;;;5021819;28;20851;-74
2023/01/31 09:02:51;;;;;;;17.77;5.73;;;3.80;80.60;;;;;;5019058;28;20516;-74
2023/01/31 09:05:17;;;;;;;8.40;5.30;;;3.90;80.20;;;;;;5019457;28;20453;-75
2023/01/31 09:07:42;;;;;;;10.37;5.17;;;4.00;80.00;;;;;;5022876;28;20497;-74
2023/01/31 09:10:09;;;;;;;14.37;5.50;;;4.00;79.60;;;;;;5015451;28;20231;-75
2023/01/31 09:12:34;;;;;;;12.80;5.13;;;4.10;79.20;;;;;;5020887;28;20232;-75
2023/01/31 09:15:01;;;;;;;18.57;5.27;;;4.10;79.20;;;;;;5025090;28;20420;-75
2023/01/31 09:17:26;;;;;;;15.10;5.70;;;4.20;79.00;;;;;;5017501;28;20178;-76
2023/01/31 09:19:52;;;;;;;14.60;5.73;;;4.30;78.70;;;;;;5014879;28;20432;-77
2023/01/31 09:22:17;;;;;;;14.80;5.33;;;4.30;78.90;;;;;;5016147;28;20244;-77
2023/01/31 09:24:44;;;;;;;12.57;5.40;;;4.40;78.60;;;;;;5023678;28;20283;-76
2023/01/31 09:27:10;;;;;;;12.50;5.00;;;4.40;78.60;;;;;;5016930;28;20193;-74
2023/01/31 09:29:36;;;;;;;15.60;4.80;;;4.50;78.70;;;;;;5014553;28;20427;-76
2023/01/31 09:32:01;;;;;;;12.40;5.60;;;4.60;77.80;;;;;;5016928;28;20190;-76
2023/01/31 09:34:27;;;;;;;18.10;5.10;;;4.60;77.60;;;;;;5021321;28;20216;-77
2023/01/31 09:36:54;;;;;;;11.80;5.30;;;4.60;77.40;;;;;;5018979;28;20186;-75
2023/01/31 09:39:19;;;;;;;9.77;5.47;;;4.70;77.60;;;;;;5025453;28;20192;-76
2023/01/31 09:41:54;;;;;;;10.53;5.20;;;4.70;77.00;;;;;;5019436;28;20460;-75
2023/01/31 09:44:26;;;;;;;15.80;4.77;;;4.80;76.50;;;;;;5014101;28;20201;-74
2023/01/31 09:46:58;;;;;;;12.00;4.77;;;4.90;75.90;;;;;;5022407;28;20413;-76
2023/01/31 09:49:27;;;;;;;14.07;4.70;;;5.00;76.10;;;;;;5017295;28;20420;-77
2023/01/31 09:52:00;;;;;;;11.63;4.70;;;5.20;75.90;;;;;;5018275;28;21120;-75
2023/01/31 09:54:36;;;;;;;12.13;4.93;;;5.30;75.40;;;;;;5022384;28;20417;-76
2023/01/31 09:57:14;;;;;;;13.07;5.00;;;5.30;74.60;;;;;;5015035;28;20431;-76
2023/01/31 10:00:18;;;;;;;12.43;4.63;;;5.30;74.20;;;;;;5020332;28;20413;-74
2023/01/31 10:03:04;;;;;;;9.13;4.97;;;5.30;74.60;;;;;;5025426;28;20419;-74
2023/01/31 10:05:49;;;;;;;16.13;4.50;;;5.30;74.30;;;;;;5029701;28;20649;-76
2023/01/31 10:08:38;;;;;;;10.57;4.20;;;5.20;74.20;;;;;;5028602;28;20409;-76
2023/01/31 10:11:12;;;;;;;16.33;4.70;;;5.20;74.30;;;;;;5027540;28;20452;-73
2023/01/31 10:13:46;;;;;;;15.43;4.90;;;5.10;74.80;;;;;;5022739;28;20436;-77
2023/01/31 10:16:26;;;;;;;12.83;5.47;;;5.30;74.80;;;;;;5012722;28;20416;-76
2023/01/31 10:19:01;;;;;;;18.43;5.30;;;5.40;74.60;;;;;;5023172;28;20954;-76
2023/01/31 10:21:42;;;;;;;11.37;4.40;;;5.40;74.50;;;;;;5018871;28;20455;-76
2023/01/31 10:24:22;;;;;;;12.27;4.40;;;5.50;74.20;;;;;;5021527;28;20465;-77
2023/01/31 10:26:51;;;;;;;11.43;4.90;;;5.40;73.90;;;;;;5013775;28;20425;-74
2023/01/31 10:29:38;;;;;;;10.40;4.77;;;5.30;74.00;;;;;;5021112;28;20466;-76
2023/01/31 10:32:11;;;;;;;10.93;4.50;;;5.30;74.60;;;;;;5018062;28;20466;-75
2023/01/31 10:34:40;;;;;;;14.60;4.63;;;5.30;74.60;;;;;;5021218;28;20424;-75
2023/01/31 10:37:18;;;;;;;11.60;4.57;;;5.20;74.20;;;;;;5018303;28;20445;-77
2023/01/31 10:39:56;;;;;;;11.33;4.97;;;5.30;74.20;;;;;;5017435;28;20523;-76
2023/01/31 10:42:21;;;;;;;14.57;4.17;;;5.20;74.00;;;;;;5014484;28;20443;-76
2023/01/31 10:45:16;;;;;;;17.43;5.17;;;5.50;74.20;;;;;;5024182;28;20468;-77
2023/01/31 10:47:52;;;;;;;11.03;5.17;;;5.70;73.50;;;;;;5009159;28;20262;-75
2023/01/31 10:50:38;;;;;;;15.17;4.37;;;5.60;72.70;;;;;;5014507;28;20526;-76
2023/01/31 10:53:10;;;;;;;11.63;4.20;;;5.50;72.90;;;;;;5016061;28;20424;-77
2023/01/31 10:55:51;;;;;;;13.63;4.53;;;5.40;73.30;;;;;;4998970;28;20454;-77
2023/01/31 10:58:21;;;;;;;10.93;4.50;;;5.40;73.60;;;;;;5020894;28;20519;-75
2023/01/31 11:00:48;;;;;;;12.80;4.40;;;5.50;73.60;;;;;;5013665;28;20445;-75
2023/01/31 11:03:15;;;;;;;8.07;4.00;;;5.50;73.30;;;;;;5017845;28;20455;-75
2023/01/31 11:05:52;;;;;;;8.63;3.80;;;5.70;73.50;;;;;;5018220;28;20475;-75
2023/01/31 11:08:25;;;;;;;7.80;3.70;;;5.60;72.90;;;;;;5028124;28;20763;-74
2023/01/31 11:10:53;;;;;;;11.47;4.00;;;5.60;72.70;;;;;;5010861;28;20460;-76
2023/01/31 11:13:19;;;;;;;16.33;5.37;;;5.70;73.30;;;;;;5013063;28;20420;-74
2023/01/31 11:15:47;;;;;;;10.07;3.90;;;5.80;73.00;;;;;;5016430;28;20421;-74
2023/01/31 11:18:31;;;;;;;9.33;3.70;;;5.90;72.30;;;;;;5011693;28;20257;-76
2023/01/31 11:20:59;;;;;;;10.33;4.17;;;5.90;72.10;;;;;;5018113;28;20448;-74
2023/01/31 11:23:28;;;;;;;16.10;4.87;;;5.90;73.20;;;;;;5021537;28;21172;-76
2023/01/31 11:25:55;;;;;;;14.33;3.57;;;6.00;73.30;;;;;;5027892;28;20427;-76
2023/01/31 11:28:37;;;;;;;6.40;3.63;;;6.00;73.00;;;;;;5017291;28;20507;-76
2023/01/31 11:31:05;;;;;;;13.50;4.30;;;5.90;73.00;;;;;;5010017;28;20526;-76
2023/01/31 11:33:37;;;;;;;10.00;4.30;;;5.80;73.30;;;;;;5012551;28;20423;-77
2023/01/31 11:36:12;;;;;;;5.80;3.43;;;5.80;73.70;;;;;;5018481;28;20412;-77
2023/01/31 11:38:38;;;;;;;12.70;4.60;;;5.80;73.60;;;;;;5010529;28;20915;-76
2023/01/31 11:41:32;;;;;;;16.57;4.50;;;5.80;73.70;;;;;;5019883;28;20480;-76
2023/01/31 11:44:17;;;;;;;8.17;3.53;;;5.70;73.60;;;;;;5021698;28;20210;-75
2023/01/31 11:46:48;;;;;;;13.70;3.70;;;5.90;73.60;;;;;;5018247;28;20463;-75
2023/01/31 11:49:30;;;;;;;8.87;4.27;;;6.00;73.70;;;;;;5011165;28;20475;-77
2023/01/31 11:52:19;;;;;;;22.57;3.90;;;6.20;73.00;;;;;;5018751;28;20445;-76
2023/01/31 11:54:51;;;;;;;14.43;3.90;;;6.40;73.00;;;;;;5025068;28;20421;-77
2023/01/31 11:57:23;;;;;;;12.80;3.87;;;6.30;71.80;;;;;;5020232;28;20432;-77
2023/01/31 11:59:52;;;;;;;14.90;4.17;;;6.30;72.00;;;;;;5013511;28;20449;-76
2023/01/31 12:02:48;;;;;;;9.80;3.57;;;6.50;71.80;;;;;;5013971;28;20463;-76
2023/01/31 12:05:18;;;;;;;7.97;3.53;;;6.50;71.60;;;;;;5022811;28;21258;-76
2023/01/31 12:07:52;;;;;;;7.97;3.70;;;6.40;71.40;;;;;;5017479;28;20416;-76
2023/01/31 12:10:44;;;;;;;11.70;4.90;;;6.30;71.70;;;;;;5010850;28;20491;-77
2023/01/31 12:13:18;;;;;;;16.67;3.77;;;6.50;71.70;;;;;;5015638;28;20835;-77
2023/01/31 12:16:04;;;;;;;11.93;3.53;;;6.70;71.00;;;;;;5007824;28;20955;-77
2023/01/31 12:18:48;;;;;;;11.60;3.83;;;6.70;70.70;;;;;;5015597;28;20425;-78
2023/01/31 12:21:15;;;;;;;6.53;3.10;;;6.60;71.00;;;;;;5012848;28;20455;-77
2023/01/31 12:23:46;;;;;;;6.43;3.20;;;6.60;71.00;;;;;;5016706;28;20593;-76
2023/01/31 12:26:26;;;;;;;7.60;3.10;;;6.50;70.70;;;;;;5019466;28;20477;-77
2023/01/31 12:29:34;;;;;;;7.33;3.60;;;6.40;70.70;;;;;;5013218;28;20416;-77
2023/01/31 12:32:18;;;;;;;9.20;2.60;;;6.30;70.20;;;;;;5011210;28;20520;-75
2023/01/31 12:35:08;;;;;;;6.03;2.53;;;6.10;70.20;;;;;;5013863;28;20420;-75
2023/01/31 12:37:51;;;;;;;5.97;2.97;;;6.00;70.70;;;;;;5011674;28;20432;-76
2023/01/31 12:40:47;;;;;;;6.77;2.20;;;6.30;70.20;;;;;;5018798;28;20468;-76
2023/01/31 12:43:43;;;;;;;7.50;2.97;;;6.70;69.80;;;;;;5024600;28;20510;-76
2023/01/31 12:46:22;;;;;;;5.70;2.97;;;6.80;69.10;;;;;;5016953;28;20495;-76
2023/01/31 12:49:25;;;;;;;6.07;2.90;;;6.80;69.40;;;;;;5019472;28;20408;-76
2023/01/31 12:52:18;;;;;;;9.10;3.53;;;6.40;69.20;;;;;;5020725;28;20545;-76
2023/01/31 12:55:10;;;;;;;5.00;2.70;;;6.20;70.40;;;;;;5018535;28;20413;-78
2023/01/31 12:57:57;;;;;;;7.57;3.17;;;6.10;70.40;;;;;;5014396;28;20432;-78
2023/01/31 13:00:34;;;;;;;6.70;2.97;;;5.80;71.30;;;;;;5014542;28;20461;-77
2023/01/31 13:03:27;;;;;;;6.20;3.07;;;5.80;71.60;;;;;;5015928;28;20719;-77
2023/01/31 13:05:56;;;;;;;16.70;3.73;;;5.70;71.80;;;;;;5010983;28;20409;-76
2023/01/31 13:08:31;;;;;;;8.70;3.00;;;5.60;72.10;;;;;;5015934;28;20448;-77
2023/01/31 13:11:18;;;;;;;9.57;3.13;;;5.50;72.40;;;;;;5010036;28;20986;-76
2023/01/31 13:13:58;;;;;;;6.77;2.80;;;5.60;72.40;;;;;;5013383;28;20412;-76
2023/01/31 13:16:36;;;;;;;8.67;4.23;;;5.70;72.30;;;;;;5020107;28;20786;-75
2023/01/31 13:19:05;;;;;;;9.43;3.60;;;5.60;72.70;;;;;;5014505;28;20470;-75